createdAt,value
2022-08-05T00:00:46.742Z,100.00
2022-08-05T00:03:16.746Z,100.00
2022-08-05T00:06:04.886Z,100.00
2022-08-05T00:08:35.099Z,100.00
2022-08-05T00:11:20.627Z,100.00
2022-08-05T00:13:54.582Z,100.00
2022-08-05T00:16:36.553Z,100.00
2022-08-05T00:19:08.787Z,100.00
2022-08-05T00:21:35.745Z,100.00
2022-08-05T00:24:11.105Z,100.00
2022-08-05T00:26:46.734Z,100.00
2022-08-05T00:29:18.466Z,100.00
2022-08-05T00:32:10.876Z,100.00
2022-08-05T00:34:56.277Z,100.00
2022-08-05T00:37:23.403Z,100.00
2022-08-05T00:39:58.435Z,100.00
2022-08-05T00:45:00.919Z,100.00
2022-08-05T00:47:53.033Z,100.00
2022-08-05T00:50:14.537Z,100.00
2022-08-05T00:52:42.021Z,100.00
2022-08-05T00:55:12.362Z,100.00
2022-08-05T00:57:58.720Z,100.00
2022-08-05T01:00:28.030Z,100.00
2022-08-05T01:02:56.191Z,100.00
2022-08-05T01:05:23.675Z,100.00
2022-08-05T01:08:40.148Z,100.00
2022-08-05T01:10:52.355Z,100.00
2022-08-05T01:13:57.527Z,100.00
2022-08-05T01:16:26.312Z,100.00
2022-08-05T01:19:05.465Z,100.00
2022-08-05T01:21:45.192Z,100.00
2022-08-05T01:24:45.114Z,100.00
2022-08-05T01:27:23.796Z,100.00
2022-08-05T01:29:54.662Z,100.00
2022-08-05T01:32:27.728Z,100.00
2022-08-05T01:35:02.249Z,100.00
2022-08-05T01:37:51.871Z,100.00
2022-08-05T01:40:27.933Z,100.00
2022-08-05T01:42:57.816Z,100.00
2022-08-05T01:45:26.556Z,100.00
2022-08-05T01:48:03.294Z,100.00
2022-08-05T01:50:40.239Z,100.00
2022-08-05T01:53:55.201Z,100.00
2022-08-05T01:56:11.545Z,100.00
2022-08-05T01:58:45.395Z,100.00
2022-08-05T02:01:14.615Z,100.00
2022-08-05T02:03:51.808Z,100.00
2022-08-05T02:06:37.756Z,100.00
2022-08-05T02:09:06.206Z,100.00
2022-08-05T02:12:01.677Z,100.00
2022-08-05T02:14:34.609Z,100.00
2022-08-05T02:17:16.883Z,100.00
2022-08-05T02:20:07.593Z,100.00
2022-08-05T02:22:42.016Z,100.00
2022-08-05T02:25:14.509Z,100.00
2022-08-05T02:27:58.038Z,100.00
2022-08-05T02:30:32.464Z,100.00
2022-08-05T02:33:03.145Z,100.00
2022-08-05T02:35:37.831Z,100.00
2022-08-05T02:38:13.335Z,100.00
2022-08-05T02:40:47.452Z,100.00
2022-08-05T02:43:16.822Z,100.00
2022-08-05T02:45:52.331Z,100.00
2022-08-05T02:48:29.527Z,100.00
2022-08-05T02:51:00.133Z,100.00
2022-08-05T02:53:39.065Z,100.00
2022-08-05T02:56:09.663Z,100.00
2022-08-05T02:58:44.258Z,100.00
2022-08-05T03:01:23.518Z,100.00
2022-08-05T03:04:03.383Z,100.00
2022-08-05T03:06:55.040Z,100.00
2022-08-05T03:09:36.515Z,100.00
2022-08-05T03:12:05.913Z,100.00
2022-08-05T03:14:32.759Z,100.00
2022-08-05T03:17:00.194Z,100.00
2022-08-05T03:19:34.199Z,100.00
2022-08-05T03:22:03.195Z,100.00
2022-08-05T03:24:32.442Z,100.00
2022-08-05T03:27:00.871Z,100.00
2022-08-05T03:29:45.652Z,100.00
2022-08-05T03:32:15.706Z,100.00
2022-08-05T03:34:51.266Z,100.00
2022-08-05T03:37:20.291Z,100.00
2022-08-05T03:39:58.551Z,100.00
2022-08-05T03:42:27.108Z,100.00
2022-08-05T03:44:55.731Z,100.00
2022-08-05T03:47:24.230Z,100.00
2022-08-05T03:49:52.473Z,100.00
2022-08-05T03:52:37.117Z,100.00
2022-08-05T03:56:06.097Z,100.00
2022-08-05T03:58:12.796Z,100.00
2022-08-05T04:00:42.054Z,100.00
2022-08-05T04:03:26.611Z,100.00
2022-08-05T04:05:59.235Z,100.00
2022-08-05T04:08:36.438Z,100.00
2022-08-05T04:11:05.210Z,100.00
2022-08-05T04:13:49.883Z,100.00
2022-08-05T04:16:24.250Z,100.00
2022-08-05T04:18:53.978Z,100.00
2022-08-05T04:22:09.220Z,100.00
2022-08-05T04:24:09.153Z,100.00
2022-08-05T04:26:45.783Z,100.00
2022-08-05T04:29:13.479Z,100.00
2022-08-05T04:31:41.344Z,100.00
2022-08-05T04:34:32.890Z,100.00
2022-08-05T04:36:56.770Z,100.00
2022-08-05T04:39:23.965Z,100.00
2022-08-05T04:41:51.401Z,100.00
2022-08-05T04:44:21.395Z,100.00
2022-08-05T04:46:57.000Z,100.00
2022-08-05T04:49:39.079Z,100.00
2022-08-05T04:52:12.618Z,100.00
2022-08-05T04:54:39.453Z,100.00
2022-08-05T04:57:06.256Z,100.00
2022-08-05T04:59:39.100Z,100.00
2022-08-05T05:02:36.680Z,100.00
2022-08-05T05:05:02.320Z,100.00
2022-08-05T05:07:32.673Z,100.00
2022-08-05T05:10:01.948Z,100.00
2022-08-05T05:12:29.353Z,100.00
2022-08-05T05:14:56.203Z,100.00
2022-08-05T05:17:24.598Z,100.00
2022-08-05T05:19:56.459Z,100.00
2022-08-05T05:22:26.107Z,100.00
2022-08-05T05:24:58.536Z,100.00
2022-08-05T05:27:44.730Z,100.00
2022-08-05T05:30:29.565Z,100.00
2022-08-05T05:33:00.165Z,100.00
2022-08-05T05:35:34.191Z,100.00
2022-08-05T05:38:05.617Z,100.00
2022-08-05T05:40:35.770Z,100.00
2022-08-05T05:43:03.248Z,100.00
2022-08-05T05:45:30.292Z,100.00
2022-08-05T05:48:06.035Z,100.00
2022-08-05T05:50:42.568Z,100.00
2022-08-05T05:53:21.947Z,100.00
2022-08-05T05:55:52.178Z,100.00
2022-08-05T05:58:30.277Z,100.00
2022-08-05T06:01:02.451Z,100.00
2022-08-05T06:04:01.415Z,100.00
2022-08-05T06:06:28.060Z,100.00
2022-08-05T06:08:58.389Z,99.94
2022-08-05T06:11:25.161Z,100.00
2022-08-05T06:13:53.994Z,100.00
2022-08-05T06:16:30.748Z,99.00
2022-08-05T06:19:01.057Z,100.00
2022-08-05T06:21:35.888Z,98.79
2022-08-05T06:24:09.988Z,98.32
2022-08-05T06:26:45.895Z,98.67
2022-08-05T06:29:43.180Z,95.59
2022-08-05T06:32:05.817Z,87.45
2022-08-05T06:34:53.590Z,88.82
2022-08-05T06:37:58.159Z,93.47
2022-08-05T06:40:10.352Z,83.61
2022-08-05T06:42:38.074Z,81.78
2022-08-05T06:45:08.834Z,83.43
2022-08-05T06:48:37.478Z,86.39
2022-08-05T06:50:22.849Z,83.15
2022-08-05T06:52:58.560Z,77.52
2022-08-05T06:55:25.776Z,77.36
2022-08-05T06:57:58.043Z,77.04
2022-08-05T07:00:31.470Z,66.72
2022-08-05T07:02:58.312Z,65.90
2022-08-05T07:05:37.904Z,64.79
2022-08-05T07:08:11.000Z,62.10
2022-08-05T07:10:38.523Z,61.50
2022-08-05T07:13:57.497Z,61.57
2022-08-05T07:17:58.778Z,61.32
2022-08-05T07:22:16.743Z,58.70
2022-08-05T07:24:44.045Z,56.41
2022-08-05T07:27:20.259Z,56.16
2022-08-05T07:30:27.292Z,56.20
2022-08-05T07:32:38.744Z,55.86
2022-08-05T07:36:05.157Z,56.35
2022-08-05T07:37:56.921Z,55.09
2022-08-05T07:40:32.530Z,54.62
2022-08-05T07:42:59.987Z,53.83
2022-08-05T07:45:57.825Z,54.32
2022-08-05T07:49:02.440Z,54.20
2022-08-05T07:51:08.702Z,51.83
2022-08-05T07:53:51.284Z,52.92
2022-08-05T07:57:00.147Z,51.78
2022-08-05T07:59:08.505Z,52.73
2022-08-05T08:01:41.668Z,51.76
2022-08-05T08:04:23.629Z,51.09
2022-08-05T08:07:07.442Z,51.90
2022-08-05T08:09:44.523Z,52.46
2022-08-05T08:12:33.410Z,52.70
2022-08-05T08:15:02.592Z,52.45
2022-08-05T08:17:30.938Z,52.26
2022-08-05T08:20:42.835Z,51.75
2022-08-05T08:22:50.176Z,51.42
2022-08-05T08:25:27.178Z,49.82
2022-08-05T08:28:05.039Z,48.70
2022-08-05T08:30:40.890Z,48.56
2022-08-05T08:33:15.006Z,46.50
2022-08-05T08:35:53.126Z,46.67
2022-08-05T08:38:35.154Z,47.50
2022-08-05T08:41:08.613Z,46.90
2022-08-05T08:45:23.124Z,45.00
2022-08-05T08:46:27.514Z,46.64
2022-08-05T08:49:07.750Z,46.21
2022-08-05T08:52:03.773Z,44.70
2022-08-05T08:54:36.492Z,45.19
2022-08-05T08:57:11.362Z,44.50
2022-08-05T08:59:41.726Z,43.96
2022-08-05T09:02:16.710Z,44.96
2022-08-05T09:04:47.551Z,44.60
2022-08-05T09:07:39.419Z,43.85
2022-08-05T09:10:20.349Z,43.78
2022-08-05T09:12:50.980Z,43.91
2022-08-05T09:15:20.256Z,45.51
2022-08-05T09:17:49.738Z,45.80
2022-08-05T09:20:36.570Z,44.00
2022-08-05T09:23:18.471Z,44.31
2022-08-05T09:26:06.648Z,42.52
2022-08-05T09:28:37.619Z,43.34
2022-08-05T09:31:23.462Z,43.43
2022-08-05T09:34:04.431Z,43.64
2022-08-05T09:36:55.106Z,43.18
2022-08-05T09:39:27.635Z,44.98
2022-08-05T09:42:17.272Z,43.29
2022-08-05T09:44:51.706Z,43.14
2022-08-05T09:47:20.891Z,44.13
2022-08-05T09:50:01.082Z,43.36
2022-08-05T09:52:34.071Z,42.95
2022-08-05T09:55:58.037Z,42.98
2022-08-05T09:57:59.984Z,42.51
2022-08-05T10:00:27.842Z,42.55
2022-08-05T10:02:58.713Z,41.83
2022-08-05T10:05:27.980Z,41.99
2022-08-05T10:08:34.604Z,42.38
2022-08-05T10:10:53.864Z,42.93
2022-08-05T10:13:47.160Z,41.57
2022-08-05T10:16:37.804Z,42.73
2022-08-05T10:19:23.449Z,41.91
2022-08-05T10:21:58.735Z,40.92
2022-08-05T10:24:26.975Z,41.63
2022-08-05T10:26:56.486Z,42.47
2022-08-05T10:30:06.751Z,42.35
2022-08-05T10:32:51.500Z,43.52
2022-08-05T10:35:04.083Z,43.09
2022-08-05T10:37:40.474Z,42.76
2022-08-05T10:40:38.973Z,41.37
2022-08-05T10:43:31.104Z,42.03
2022-08-05T10:46:08.722Z,42.07
2022-08-05T10:48:57.055Z,41.51
2022-08-05T10:51:28.748Z,41.68
2022-08-05T10:53:58.270Z,41.10
2022-08-05T10:56:30.450Z,42.17
2022-08-05T10:59:11.438Z,42.34
2022-08-05T11:01:55.114Z,42.66
2022-08-05T11:04:36.520Z,43.00
2022-08-05T11:07:06.639Z,43.73
2022-08-05T11:09:50.556Z,43.94
2022-08-05T11:12:45.457Z,44.39
2022-08-05T11:15:21.145Z,44.29
2022-08-05T11:17:57.110Z,44.58
2022-08-05T11:20:47.649Z,44.40
2022-08-05T11:24:02.753Z,43.29
2022-08-05T11:26:32.130Z,43.93
2022-08-05T11:29:11.936Z,44.08
2022-08-05T11:31:57.937Z,43.90
2022-08-05T11:34:50.807Z,43.84
2022-08-05T11:38:30.517Z,43.27
2022-08-05T11:41:35.604Z,43.61
2022-08-05T11:44:04.926Z,43.89
2022-08-05T11:46:35.946Z,44.45
2022-08-05T11:49:05.481Z,44.01
2022-08-05T11:51:44.794Z,45.10
2022-08-05T11:54:33.619Z,44.23
2022-08-05T11:57:07.942Z,44.15
2022-08-05T11:59:49.763Z,43.90
2022-08-05T12:02:29.673Z,44.45
2022-08-05T12:04:59.962Z,43.30
2022-08-05T12:08:02.684Z,40.76
2022-08-05T12:10:23.015Z,41.60
2022-08-05T12:12:59.880Z,39.48
2022-08-05T12:15:37.962Z,39.11
2022-08-05T12:18:10.131Z,39.62
2022-08-05T12:20:38.967Z,41.10
2022-08-05T12:23:12.691Z,41.49
2022-08-05T12:25:56.622Z,41.80
2022-08-05T12:28:34.020Z,42.29
2022-08-05T12:31:02.476Z,42.44
2022-08-05T12:33:37.092Z,42.34
2022-08-05T12:36:08.838Z,40.80
2022-08-05T12:38:41.156Z,40.17
2022-08-05T12:41:13.525Z,39.20
2022-08-05T12:43:59.073Z,38.83
2022-08-05T12:46:31.388Z,38.68
2022-08-05T12:49:13.175Z,38.56
2022-08-05T12:52:13.746Z,39.64
2022-08-05T12:54:45.737Z,40.75
2022-08-05T12:57:13.383Z,40.99
2022-08-05T13:01:57.017Z,40.74
2022-08-05T13:02:41.714Z,40.71
2022-08-05T13:05:12.537Z,41.06
2022-08-05T13:07:59.252Z,40.95
2022-08-05T13:10:28.634Z,41.25
2022-08-05T13:12:58.179Z,41.46
2022-08-05T13:15:35.862Z,42.85
2022-08-05T13:18:08.674Z,43.90
2022-08-05T13:20:40.166Z,43.65
2022-08-05T13:23:07.623Z,44.43
2022-08-05T13:25:52.093Z,44.94
2022-08-05T13:28:22.382Z,44.32
2022-08-05T13:30:53.152Z,43.39
2022-08-05T13:34:21.305Z,41.56
2022-08-05T13:36:09.220Z,40.44
2022-08-05T13:38:41.899Z,40.23
2022-08-05T13:41:08.987Z,39.32
2022-08-05T13:43:44.467Z,38.24
2022-08-05T13:46:50.758Z,38.94
2022-08-05T13:49:10.565Z,38.32
2022-08-05T13:51:41.194Z,36.65
2022-08-05T13:54:15.043Z,35.89
2022-08-05T13:56:50.665Z,34.97
2022-08-05T13:59:24.125Z,34.55
2022-08-05T14:01:58.525Z,34.49
2022-08-05T14:04:49.128Z,35.31
2022-08-05T14:07:26.337Z,37.04
2022-08-05T14:10:10.360Z,36.27
2022-08-05T14:12:37.261Z,37.19
2022-08-05T14:16:06.161Z,38.54
2022-08-05T14:17:55.109Z,37.77
2022-08-05T14:20:27.767Z,37.19
2022-08-05T14:22:55.026Z,38.40
2022-08-05T14:25:22.777Z,39.36
2022-08-05T14:27:55.869Z,39.60
2022-08-05T14:30:22.810Z,39.88
2022-08-05T14:32:53.907Z,40.97
2022-08-05T14:35:22.920Z,42.11
2022-08-05T14:37:55.031Z,43.59
2022-08-05T14:40:24.160Z,44.19
2022-08-05T14:42:50.985Z,44.46
2022-08-05T14:45:18.841Z,43.92
2022-08-05T14:48:03.210Z,44.59
2022-08-05T14:50:33.145Z,44.24
2022-08-05T14:53:06.776Z,44.18
2022-08-05T14:55:39.334Z,44.35
2022-08-05T14:58:12.025Z,44.09
2022-08-05T15:00:59.407Z,44.30
2022-08-05T15:03:33.216Z,44.08
2022-08-05T15:06:08.059Z,44.51
2022-08-05T15:09:01.072Z,45.14
2022-08-05T15:11:50.874Z,44.02
2022-08-05T15:14:35.773Z,42.51
2022-08-05T15:17:14.647Z,43.37
2022-08-05T15:19:56.409Z,44.68
2022-08-05T15:22:27.128Z,44.77
2022-08-05T15:24:56.236Z,45.61
2022-08-05T15:27:25.818Z,44.64
2022-08-05T15:29:56.615Z,43.82
2022-08-05T15:32:27.259Z,44.44
2022-08-05T15:34:56.602Z,43.78
2022-08-05T15:38:33.160Z,43.92
2022-08-05T15:41:03.465Z,44.68
2022-08-05T15:43:09.313Z,48.00
2022-08-05T15:45:44.502Z,48.97
2022-08-05T15:48:14.254Z,49.03
2022-08-05T15:50:43.753Z,49.78
2022-08-05T15:53:13.258Z,49.54
2022-08-05T15:56:04.055Z,50.21
2022-08-05T15:58:29.286Z,50.22
2022-08-05T16:01:11.537Z,49.06
2022-08-05T16:03:43.513Z,50.67
2022-08-05T16:06:11.161Z,49.96
2022-08-05T16:08:38.856Z,49.63
2022-08-05T16:11:08.016Z,52.03
2022-08-05T16:13:35.313Z,52.28
2022-08-05T16:16:03.539Z,52.13
2022-08-05T16:18:31.105Z,52.39
2022-08-05T16:20:59.811Z,53.40
2022-08-05T16:23:54.260Z,54.36
2022-08-05T16:26:17.548Z,55.75
2022-08-05T16:28:44.801Z,56.49
2022-08-05T16:31:11.542Z,57.26
2022-08-05T16:33:41.519Z,59.05
2022-08-05T16:36:08.949Z,61.05
2022-08-05T16:38:35.794Z,63.59
2022-08-05T16:42:12.638Z,65.92
2022-08-05T16:43:56.436Z,69.28
2022-08-05T16:46:24.374Z,70.95
2022-08-05T16:48:52.099Z,71.93
2022-08-05T16:51:19.561Z,73.40
2022-08-05T16:54:06.167Z,73.49
2022-08-05T16:56:35.129Z,75.72
2022-08-05T16:59:08.066Z,75.90
2022-08-05T17:01:53.727Z,77.38
2022-08-05T17:04:27.823Z,77.77
2022-08-05T17:06:56.997Z,78.85
2022-08-05T17:09:29.604Z,79.92
2022-08-05T17:11:59.631Z,82.43
2022-08-05T17:14:37.677Z,86.29
2022-08-05T17:17:14.465Z,88.50
2022-08-05T17:19:45.278Z,89.18
2022-08-05T17:22:24.892Z,89.00
2022-08-05T17:24:57.905Z,90.49
2022-08-05T17:27:34.274Z,92.00
2022-08-05T17:30:02.381Z,94.03
2022-08-05T17:32:29.868Z,97.84
2022-08-05T17:34:58.281Z,100.00
2022-08-05T17:37:40.066Z,100.00
2022-08-05T17:40:12.681Z,100.00
2022-08-05T17:42:41.598Z,100.00
2022-08-05T17:45:20.074Z,100.00
2022-08-05T17:47:53.422Z,100.00
2022-08-05T17:50:28.406Z,100.00
2022-08-05T17:53:00.739Z,100.00
2022-08-05T17:55:34.266Z,100.00
2022-08-05T17:58:06.963Z,100.00
2022-08-05T18:00:36.264Z,100.00
2022-08-05T18:03:07.873Z,100.00
2022-08-05T18:05:36.228Z,100.00
2022-08-05T18:08:03.897Z,100.00
2022-08-05T18:10:33.717Z,100.00
2022-08-05T18:13:01.926Z,100.00
2022-08-05T18:15:35.196Z,100.00
2022-08-05T18:18:10.851Z,100.00
2022-08-05T18:20:38.890Z,100.00
2022-08-05T18:23:11.514Z,100.00
2022-08-05T18:25:45.249Z,100.00
2022-08-05T18:28:17.815Z,100.00
2022-08-05T18:30:51.233Z,100.00
2022-08-05T18:33:22.541Z,100.00
2022-08-05T18:36:03.711Z,100.00
2022-08-05T18:38:37.251Z,100.00
2022-08-05T18:41:55.344Z,100.00
2022-08-05T18:43:54.372Z,100.00
2022-08-05T18:46:21.125Z,100.00
2022-08-05T18:48:52.625Z,100.00
2022-08-05T18:52:04.015Z,100.00
2022-08-05T18:54:31.389Z,100.00
2022-08-05T18:57:00.938Z,100.00
2022-08-05T18:59:43.466Z,100.00
2022-08-05T19:02:27.878Z,100.00
2022-08-05T19:05:02.210Z,100.00
2022-08-05T19:07:46.391Z,100.00
2022-08-05T19:10:15.049Z,100.00
2022-08-05T19:12:43.009Z,100.00
2022-08-05T19:15:57.869Z,100.00
2022-08-05T19:18:08.306Z,100.00
2022-08-05T19:20:41.384Z,100.00
2022-08-05T19:23:08.718Z,100.00
2022-08-05T19:26:02.153Z,100.00
2022-08-05T19:28:32.741Z,100.00
2022-08-05T19:31:01.121Z,100.00
2022-08-05T19:33:36.391Z,100.00
2022-08-05T19:36:06.383Z,100.00
2022-08-05T19:38:35.500Z,100.00
2022-08-05T19:41:07.388Z,100.00
2022-08-05T19:44:05.423Z,100.00
2022-08-05T19:46:30.278Z,100.00
2022-08-05T19:49:03.349Z,100.00
2022-08-05T19:52:13.185Z,100.00
2022-08-05T19:54:31.105Z,100.00
2022-08-05T19:57:09.216Z,100.00
2022-08-05T19:59:56.618Z,100.00
2022-08-05T20:02:25.961Z,100.00
2022-08-05T20:04:54.892Z,100.00
2022-08-05T20:07:46.444Z,100.00
2022-08-05T20:10:13.417Z,100.00
2022-08-05T20:12:47.718Z,100.00
2022-08-05T20:15:23.465Z,100.00
2022-08-05T20:18:10.634Z,100.00
2022-08-05T20:20:55.093Z,100.00
2022-08-05T20:23:22.691Z,100.00
2022-08-05T20:25:49.480Z,100.00
2022-08-05T20:28:19.329Z,100.00
2022-08-05T20:30:46.366Z,100.00
2022-08-05T20:33:16.187Z,100.00
2022-08-05T20:35:45.572Z,100.00
2022-08-05T20:38:20.246Z,100.00
2022-08-05T20:40:55.507Z,100.00
2022-08-05T20:43:57.579Z,100.00
2022-08-05T20:46:12.455Z,100.00
2022-08-05T20:48:45.495Z,100.00
2022-08-05T20:51:18.084Z,100.00
2022-08-05T20:53:55.125Z,100.00
2022-08-05T20:56:28.987Z,100.00
2022-08-05T20:59:00.159Z,100.00
2022-08-05T21:01:40.690Z,100.00
2022-08-05T21:04:10.653Z,100.00
2022-08-05T21:06:45.697Z,100.00
2022-08-05T21:09:15.014Z,100.00
2022-08-05T21:12:10.395Z,100.00
2022-08-05T21:14:35.229Z,100.00
2022-08-05T21:17:05.098Z,100.00
2022-08-05T21:19:46.648Z,100.00
2022-08-05T21:22:23.104Z,100.00
2022-08-05T21:24:51.595Z,100.00
2022-08-05T21:27:20.676Z,100.00
2022-08-05T21:29:54.211Z,100.00
2022-08-05T21:32:24.541Z,100.00
2022-08-05T21:35:16.756Z,100.00
2022-08-05T21:37:47.106Z,100.00
2022-08-05T21:40:14.383Z,100.00
2022-08-05T21:42:44.562Z,100.00
2022-08-05T21:45:24.103Z,100.00
2022-08-05T21:47:56.124Z,100.00
2022-08-05T21:50:25.017Z,100.00
2022-08-05T21:52:51.790Z,100.00
2022-08-05T21:55:23.726Z,100.00
2022-08-05T22:01:00.896Z,100.00
2022-08-05T22:03:52.230Z,100.00
2022-08-05T22:06:16.545Z,100.00
2022-08-05T22:08:52.071Z,100.00
2022-08-05T22:11:35.008Z,100.00
2022-08-05T22:14:31.451Z,100.00
2022-08-05T22:16:55.904Z,100.00
2022-08-05T22:20:01.158Z,100.00
2022-08-05T22:22:11.835Z,100.00
2022-08-05T22:24:57.760Z,100.00
2022-08-05T22:28:08.470Z,100.00
2022-08-05T22:30:32.441Z,100.00
2022-08-05T22:33:02.562Z,100.00
2022-08-05T22:35:38.570Z,100.00
2022-08-05T22:38:15.283Z,100.00
2022-08-05T22:40:42.165Z,100.00
2022-08-05T22:43:36.839Z,100.00
2022-08-05T22:46:12.310Z,100.00
2022-08-05T22:48:47.845Z,100.00
2022-08-05T22:51:22.443Z,100.00
2022-08-05T22:53:50.295Z,100.00
2022-08-05T22:56:18.087Z,100.00
2022-08-05T22:58:58.402Z,100.00
2022-08-05T23:01:50.912Z,100.00
2022-08-05T23:04:14.213Z,100.00
2022-08-05T23:06:41.484Z,100.00
2022-08-05T23:09:27.155Z,100.00
2022-08-05T23:11:56.353Z,100.00
2022-08-05T23:14:32.363Z,100.00
2022-08-05T23:17:24.610Z,100.00
2022-08-05T23:20:03.864Z,100.00
2022-08-05T23:22:32.648Z,100.00
2022-08-05T23:25:00.081Z,100.00
2022-08-05T23:27:31.540Z,100.00
2022-08-05T23:30:10.731Z,100.00
2022-08-05T23:32:37.937Z,100.00
2022-08-05T23:35:12.310Z,100.00
2022-08-05T23:37:39.337Z,100.00
2022-08-05T23:40:09.329Z,100.00
2022-08-05T23:42:38.024Z,100.00
2022-08-05T23:45:14.121Z,100.00
2022-08-05T23:47:47.667Z,100.00
2022-08-05T23:50:14.944Z,100.00
2022-08-05T23:52:50.007Z,100.00
2022-08-05T23:55:19.294Z,100.00
2022-08-05T23:57:49.044Z,100.00
